Time;durP1;ratioP1;P1;durP2;ratioP2;P2;SDS_P1;SDS_P2;PMS_P1;PMS_P2;Temp;Humidity;BMP_temperature;BMP_pressure;BME280_temperature;BME280_humidity;BME280_pressure;Samples;Min_cycle;Max_cycle;Signal;HPM_P1;HPM_P2
2023/05/03 00:00:07;;;;;;;4.57;4.27;;;11.40;80.50;11.30;97106.00;;;;5072620;28;20188;-78
2023/05/03 00:02:34;;;;;;;4.87;4.30;;;11.40;80.70;11.30;97095.00;;;;5075123;28;20231;-78
2023/05/03 00:05:03;;;;;;;4.90;4.50;;;11.40;80.80;11.30;97091.00;;;;5083809;28;20183;-78
2023/05/03 00:07:30;;;;;;;4.90;4.33;;;11.40;80.90;11.30;97089.00;;;;5078975;28;20195;-78
2023/05/03 00:09:58;;;;;;;4.57;4.27;;;11.40;81.10;11.40;97091.00;;;;5087510;28;20188;-78
2023/05/03 00:12:25;;;;;;;5.00;4.37;;;11.40;81.10;11.40;97089.00;;;;5074567;28;20245;-78
2023/05/03 00:14:54;;;;;;;4.80;4.40;;;11.40;82.00;11.40;97088.00;;;;5074874;28;20555;-78
2023/05/03 00:17:21;;;;;;;4.93;4.43;;;11.40;81.50;11.50;97090.00;;;;5074153;28;20206;-78
2023/05/03 00:19:48;;;;;;;5.13;4.73;;;11.40;81.40;11.50;97087.00;;;;5081435;28;20672;-78
2023/05/03 00:22:15;;;;;;;4.90;4.50;;;11.50;81.40;11.50;97081.00;;;;5072193;28;20192;-78
2023/05/03 00:24:43;;;;;;;4.63;4.23;;;11.50;81.20;11.50;97075.00;;;;5076154;28;20211;-78
2023/05/03 00:27:10;;;;;;;4.27;3.97;;;11.50;81.00;11.50;97078.00;;;;5080084;28;20203;-78
2023/05/03 00:29:37;;;;;;;4.03;3.73;;;11.50;80.90;11.50;97075.00;;;;5072145;28;20644;-78
2023/05/03 00:32:06;;;;;;;4.30;4.00;;;11.50;80.90;11.50;97070.00;;;;5072261;28;20188;-78
2023/05/03 00:34:33;;;;;;;4.70;4.40;;;11.50;80.90;11.50;97075.00;;;;5073110;28;20231;-78
2023/05/03 00:37:01;;;;;;;4.23;3.93;;;11.50;80.90;11.50;97070.00;;;;5083544;28;20200;-78
2023/05/03 00:39:30;;;;;;;4.33;4.03;;;11.50;80.80;11.50;97078.00;;;;5075314;28;20224;-78
2023/05/03 00:41:58;;;;;;;4.53;4.20;;;11.50;80.60;11.50;97072.00;;;;5070996;28;20196;-78
2023/05/03 00:44:25;;;;;;;4.47;4.07;;;11.50;80.50;11.40;97074.00;;;;5068990;28;20220;-78
2023/05/03 00:46:53;;;;;;;4.63;4.23;;;11.50;80.30;11.40;97074.00;;;;5075640;28;20191;-78
2023/05/03 00:49:24;;;;;;;4.00;3.70;;;11.50;80.30;11.40;97064.00;;;;5076472;28;20244;-78
2023/05/03 00:51:53;;;;;;;4.53;4.00;;;11.40;80.10;11.40;97068.00;;;;5065353;28;20224;-78
2023/05/03 00:54:21;;;;;;;4.27;3.97;;;11.40;80.20;11.30;97073.00;;;;5068085;28;20301;-78
2023/05/03 00:56:49;;;;;;;4.03;3.67;;;11.40;80.50;11.40;97066.00;;;;5067411;28;20282;-78
2023/05/03 00:59:16;;;;;;;3.90;3.60;;;11.40;80.50;11.30;97068.00;;;;5079609;28;20247;-78
2023/05/03 01:01:44;;;;;;;4.20;3.90;;;11.40;80.60;11.30;97076.00;;;;5076072;28;20192;-78
2023/05/03 01:04:11;;;;;;;4.07;3.77;;;11.40;80.60;11.30;97067.00;;;;5070788;28;20211;-78
2023/05/03 01:06:50;;;;;;;5.87;4.03;;;11.40;80.50;11.30;97069.00;;;;5077997;28;20202;-78
2023/05/03 01:09:31;;;;;;;5.23;3.93;;;11.40;80.40;11.30;97068.00;;;;5068617;28;20211;-78
2023/05/03 01:12:18;;;;;;;5.77;3.60;;;11.40;80.30;11.30;97075.00;;;;5074889;28;20202;-78
2023/05/03 01:15:00;;;;;;;5.13;3.50;;;11.40;80.30;11.30;97070.00;;;;5072111;28;20602;-78
2023/05/03 01:17:34;;;;;;;5.40;3.70;;;11.40;80.40;11.30;97070.00;;;;5062761;28;20207;-78
2023/05/03 01:20:09;;;;;;;7.60;4.10;;;11.30;80.40;11.30;97075.00;;;;5079116;28;20218;-78
2023/05/03 01:22:48;;;;;;;11.93;4.00;;;11.30;80.40;11.30;97070.00;;;;5069881;28;20278;-78
2023/05/03 01:25:17;;;;;;;24.20;4.60;;;11.30;80.40;11.20;97066.00;;;;5078666;28;20613;-78
2023/05/03 01:27:44;;;;;;;16.60;3.80;;;11.30;80.50;11.20;97071.00;;;;5076265;28;20199;-78
2023/05/03 01:30:13;;;;;;;19.03;3.70;;;11.30;80.50;11.20;97058.00;;;;5091860;28;20195;-79
2023/05/03 01:32:54;;;;;;;4.70;3.20;;;11.30;80.60;11.20;97062.00;;;;5073453;28;20237;-78
2023/05/03 01:35:29;;;;;;;10.10;3.20;;;11.30;80.80;11.20;97059.00;;;;5084800;28;20282;-78
2023/05/03 01:37:57;;;;;;;12.23;3.50;;;11.30;80.80;11.20;97063.00;;;;5071692;28;20207;-79
2023/05/03 01:40:31;;;;;;;14.17;2.80;;;11.20;80.70;11.10;97067.00;;;;5087589;28;20195;-78
2023/05/03 01:42:59;;;;;;;4.30;2.83;;;11.20;80.40;11.10;97066.00;;;;5072762;28;20222;-78
2023/05/03 01:45:27;;;;;;;3.03;2.83;;;11.20;80.20;11.10;97066.00;;;;5078478;28;20199;-80
2023/05/03 01:47:56;;;;;;;4.93;2.97;;;11.20;80.40;11.10;97061.00;;;;5070602;28;20210;-79
2023/05/03 01:50:24;;;;;;;4.37;3.37;;;11.20;80.80;11.10;97065.00;;;;5071307;28;20831;-78
2023/05/03 01:52:52;;;;;;;4.70;3.73;;;11.20;80.90;11.10;97067.00;;;;5072994;28;20301;-78
2023/05/03 01:55:19;;;;;;;3.77;3.47;;;11.20;80.90;11.10;97069.00;;;;5079704;28;20617;-78
2023/05/03 01:57:48;;;;;;;3.40;3.10;;;11.20;81.10;11.10;97071.00;;;;5082429;28;20201;-78
2023/05/03 02:00:16;;;;;;;3.37;3.10;;;11.20;81.20;11.10;97069.00;;;;5082638;28;20215;-78
2023/05/03 02:02:43;;;;;;;3.10;2.90;;;11.20;81.40;11.10;97066.00;;;;5081596;28;20638;-78
2023/05/03 02:05:11;;;;;;;4.50;4.10;;;11.20;81.50;11.10;97064.00;;;;5083221;28;20188;-78
2023/05/03 02:07:38;;;;;;;5.80;3.73;;;11.20;81.60;11.20;97074.00;;;;5083868;28;20242;-78
2023/05/03 02:10:06;;;;;;;6.80;3.70;;;11.20;82.30;11.20;97071.00;;;;5083044;28;20203;-78
2023/05/03 02:12:33;;;;;;;6.60;3.60;;;11.20;81.50;11.20;97070.00;;;;5079160;28;20196;-78
2023/05/03 02:15:02;;;;;;;9.20;3.53;;;11.20;81.40;11.20;97076.00;;;;5089114;28;20195;-78
2023/05/03 02:17:29;;;;;;;4.20;3.50;;;11.20;81.60;11.20;97081.00;;;;5075612;28;20200;-78
2023/05/03 02:19:56;;;;;;;4.60;3.53;;;11.20;81.80;11.30;97075.00;;;;5086607;28;20221;-78
2023/05/03 02:22:24;;;;;;;3.90;3.53;;;11.20;81.90;11.30;97086.00;;;;5077793;28;20206;-78
2023/05/03 02:24:51;;;;;;;3.37;3.17;;;11.30;82.00;11.30;97076.00;;;;5089771;28;20234;-79
2023/05/03 02:27:18;;;;;;;4.20;3.73;;;11.30;82.00;11.30;97082.00;;;;5082700;28;20683;-78
2023/05/03 02:29:45;;;;;;;11.43;4.00;;;11.30;82.10;11.40;97079.00;;;;5075602;28;20195;-78
2023/05/03 02:32:14;;;;;;;7.03;4.37;;;11.30;82.10;11.40;97086.00;;;;5074277;28;20678;-78
2023/05/03 02:34:41;;;;;;;11.00;4.40;;;11.40;82.20;11.40;97076.00;;;;5073580;28;20273;-79
2023/05/03 02:37:08;;;;;;;9.03;4.23;;;11.40;82.20;11.50;97081.00;;;;5055871;28;20196;-79
2023/05/03 02:39:35;;;;;;;4.87;3.80;;;11.40;82.20;11.50;97075.00;;;;5077050;28;20735;-78
2023/05/03 02:42:03;;;;;;;4.70;4.07;;;11.50;82.30;11.50;97071.00;;;;5079982;28;20188;-78
2023/05/03 02:44:30;;;;;;;4.50;4.10;;;11.50;82.40;11.60;97074.00;;;;5080553;28;20249;-78
2023/05/03 02:46:57;;;;;;;4.27;3.97;;;11.50;82.30;11.60;97081.00;;;;5065696;28;20199;-78
2023/05/03 02:49:25;;;;;;;4.37;3.97;;;11.50;82.30;11.60;97074.00;;;;5075347;28;20292;-78
2023/05/03 02:51:53;;;;;;;10.60;4.20;;;11.60;82.40;11.70;97083.00;;;;5084376;28;20203;-78
2023/05/03 02:54:20;;;;;;;4.87;4.47;;;11.60;82.30;11.70;97081.00;;;;5074634;28;20307;-78
2023/05/03 02:56:47;;;;;;;4.67;4.07;;;11.60;82.40;11.70;97080.00;;;;5086881;28;20679;-78
2023/05/03 02:59:14;;;;;;;4.17;3.87;;;11.70;82.50;11.80;97081.00;;;;5085277;28;20310;-78
2023/05/03 03:01:42;;;;;;;4.30;4.00;;;11.70;82.60;11.80;97081.00;;;;5087039;28;20199;-78
2023/05/03 03:04:10;;;;;;;4.70;4.30;;;11.70;82.70;11.80;97078.00;;;;5059692;28;20303;-78
2023/05/03 03:06:39;;;;;;;4.53;4.23;;;11.80;82.80;11.90;97077.00;;;;5085055;28;20648;-78
2023/05/03 03:09:06;;;;;;;4.87;4.10;;;11.80;82.70;11.90;97077.00;;;;5078360;28;20192;-78
2023/05/03 03:11:33;;;;;;;4.47;4.07;;;11.80;82.60;11.90;97075.00;;;;5076407;28;20528;-78
2023/05/03 03:14:00;;;;;;;5.63;4.50;;;11.90;82.60;12.00;97079.00;;;;5085000;28;20217;-78
2023/05/03 03:16:27;;;;;;;4.30;4.00;;;11.90;82.60;12.00;97077.00;;;;5078737;28;20223;-78
2023/05/03 03:18:54;;;;;;;4.00;3.70;;;11.90;82.70;12.00;97080.00;;;;5078963;28;20692;-78
2023/05/03 03:21:22;;;;;;;4.17;3.83;;;12.00;82.70;12.10;97073.00;;;;5080959;28;20278;-79
2023/05/03 03:23:50;;;;;;;4.80;4.40;;;12.00;82.80;12.10;97076.00;;;;5072806;28;20294;-78
2023/05/03 03:26:17;;;;;;;4.87;4.47;;;12.00;82.80;12.20;97071.00;;;;5077218;28;20206;-78
2023/05/03 03:28:45;;;;;;;5.27;4.77;;;12.10;82.90;12.20;97078.00;;;;5071567;28;20219;-78
2023/05/03 03:31:12;;;;;;;6.00;5.50;;;12.10;82.90;12.20;97078.00;;;;5073682;28;20220;-78
2023/05/03 03:33:39;;;;;;;5.63;5.13;;;12.10;82.90;12.30;97073.00;;;;5081655;28;20596;-78
2023/05/03 03:36:09;;;;;;;5.53;5.00;;;12.10;83.10;12.40;97078.00;;;;5074131;28;20214;-78
2023/05/03 03:38:36;;;;;;;6.17;5.57;;;12.20;83.20;12.40;97074.00;;;;5083756;28;20203;-78
2023/05/03 03:41:04;;;;;;;5.90;5.30;;;12.30;83.30;12.50;97072.00;;;;5075964;28;20192;-78
2023/05/03 03:43:32;;;;;;;6.37;5.63;;;12.30;83.20;12.50;97079.00;;;;5078968;28;20303;-78
2023/05/03 03:45:59;;;;;;;6.37;5.50;;;12.30;83.20;12.50;97087.00;;;;5074131;28;20195;-78
2023/05/03 03:48:26;;;;;;;9.50;6.60;;;12.40;83.30;12.60;97089.00;;;;5083679;28;20294;-78
2023/05/03 03:50:53;;;;;;;7.00;6.00;;;12.40;83.30;12.60;97090.00;;;;5084091;28;20274;-78
2023/05/03 03:53:20;;;;;;;6.50;5.87;;;12.50;83.30;12.70;97081.00;;;;5076588;28;20597;-78
2023/05/03 03:55:48;;;;;;;6.60;5.90;;;12.50;83.30;12.70;97080.00;;;;5086966;28;20574;-78
2023/05/03 03:58:16;;;;;;;7.00;6.30;;;12.50;83.30;12.70;97087.00;;;;5059462;28;20631;-78
2023/05/03 04:00:44;;;;;;;7.33;6.50;;;12.60;83.30;12.80;97080.00;;;;5074562;28;20655;-78
2023/05/03 04:03:11;;;;;;;8.07;6.87;;;12.60;83.30;12.80;97092.00;;;;5072101;28;20303;-78
2023/05/03 04:05:38;;;;;;;8.43;6.90;;;12.60;83.30;12.90;97089.00;;;;5085305;28;20617;-78
2023/05/03 04:08:06;;;;;;;7.50;6.80;;;12.70;83.40;12.90;97096.00;;;;5088941;28;20647;-78
2023/05/03 04:10:33;;;;;;;7.90;6.70;;;12.70;83.40;12.90;97090.00;;;;5069927;28;20588;-78
2023/05/03 04:13:00;;;;;;;8.40;6.53;;;12.80;83.40;13.00;97089.00;;;;5077267;28;20302;-78
2023/05/03 04:15:29;;;;;;;8.37;6.93;;;12.80;83.30;13.00;97098.00;;;;5073374;28;20246;-79
2023/05/03 04:17:56;;;;;;;7.27;6.57;;;12.80;83.20;13.00;97113.00;;;;5079471;28;20546;-78
2023/05/03 04:20:23;;;;;;;10.70;7.87;;;12.90;83.30;13.10;97108.00;;;;5090725;28;20219;-78
2023/05/03 04:22:50;;;;;;;10.23;6.67;;;12.90;83.20;13.10;97115.00;;;;5085457;28;20219;-80
2023/05/03 04:25:17;;;;;;;8.67;7.07;;;12.90;83.20;13.10;97111.00;;;;5080783;28;20286;-80
2023/05/03 04:27:45;;;;;;;7.63;6.83;;;12.90;83.20;13.20;97115.00;;;;5067993;28;20759;-80
2023/05/03 04:30:14;;;;;;;7.67;6.90;;;13.00;83.20;13.20;97114.00;;;;5078077;28;20199;-80
2023/05/03 04:32:43;;;;;;;8.27;6.80;;;13.00;83.20;13.30;97118.00;;;;5074492;28;20270;-80
2023/05/03 04:35:11;;;;;;;12.93;7.67;;;13.00;83.20;13.30;97120.00;;;;5079588;28;20222;-79
2023/05/03 04:37:41;;;;;;;13.23;7.73;;;13.10;83.00;13.30;97121.00;;;;5081504;28;20200;-80
2023/05/03 04:40:11;;;;;;;8.63;7.10;;;13.10;82.80;13.40;97119.00;;;;5079262;28;20216;-80
2023/05/03 04:42:38;;;;;;;8.53;7.47;;;13.10;82.90;13.40;97115.00;;;;5092110;28;20640;-79
2023/05/03 04:45:08;;;;;;;7.63;6.90;;;13.10;83.00;13.40;97129.00;;;;5077608;28;20245;-80
2023/05/03 04:47:35;;;;;;;10.77;7.23;;;13.20;83.20;13.50;97128.00;;;;5079161;28;20708;-80
2023/05/03 04:50:07;;;;;;;11.33;7.23;;;13.20;83.20;13.50;97131.00;;;;5087580;28;20219;-80
2023/05/03 04:52:34;;;;;;;8.40;7.00;;;13.20;83.30;13.60;97133.00;;;;5084423;28;20208;-80
2023/05/03 04:55:02;;;;;;;10.53;7.07;;;13.30;83.30;13.60;97137.00;;;;5088342;28;20227;-80
2023/05/03 04:57:31;;;;;;;8.50;6.77;;;13.30;83.30;13.60;97137.00;;;;5086987;28;20710;-79
2023/05/03 04:59:58;;;;;;;10.37;6.30;;;13.30;83.20;13.70;97137.00;;;;5089509;28;20302;-79
2023/05/03 05:02:26;;;;;;;8.00;6.60;;;13.40;83.20;13.70;97139.00;;;;5085714;28;20199;-79
2023/05/03 05:04:53;;;;;;;7.33;6.63;;;13.40;83.00;13.70;97132.00;;;;5077518;28;20192;-79
2023/05/03 05:07:21;;;;;;;8.83;6.87;;;13.40;82.90;13.70;97139.00;;;;5085196;28;20612;-80
2023/05/03 05:09:48;;;;;;;8.13;7.33;;;13.50;83.10;13.70;97143.00;;;;5083997;28;20565;-79
2023/05/03 05:12:16;;;;;;;7.37;6.67;;;13.40;82.90;13.70;97145.00;;;;5080021;28;20213;-80
2023/05/03 05:14:43;;;;;;;7.43;6.73;;;13.50;82.80;13.70;97145.00;;;;5081849;28;20203;-80
2023/05/03 05:17:10;;;;;;;7.93;7.13;;;13.50;82.70;13.80;97157.00;;;;5088803;28;20664;-80
2023/05/03 05:19:38;;;;;;;6.97;6.27;;;13.60;82.80;13.80;97156.00;;;;5076920;28;20314;-81
2023/05/03 05:22:05;;;;;;;6.90;6.30;;;13.60;82.70;13.90;97164.00;;;;5090211;28;20640;-80
2023/05/03 05:24:34;;;;;;;7.53;6.53;;;13.60;82.60;13.90;97164.00;;;;5077955;28;20208;-80
2023/05/03 05:27:01;;;;;;;7.03;6.33;;;13.60;82.60;13.90;97170.00;;;;5077540;28;20274;-79
2023/05/03 05:29:29;;;;;;;8.00;6.97;;;13.70;82.70;14.00;97166.00;;;;5076394;28;20199;-79
2023/05/03 05:31:56;;;;;;;8.27;7.33;;;13.70;82.70;14.00;97170.00;;;;5084252;28;20193;-79
2023/05/03 05:34:23;;;;;;;8.50;6.80;;;13.70;82.70;14.10;97180.00;;;;5083035;28;20599;-78
2023/05/03 05:36:51;;;;;;;8.17;6.70;;;13.80;82.80;14.10;97173.00;;;;5074958;28;20243;-78
2023/05/03 05:39:18;;;;;;;7.57;6.87;;;13.80;82.70;14.10;97177.00;;;;5075370;28;20692;-78
2023/05/03 05:41:47;;;;;;;6.73;5.93;;;13.80;82.40;14.10;97176.00;;;;5075190;28;20276;-79
2023/05/03 05:44:14;;;;;;;6.97;6.27;;;13.80;82.30;14.10;97168.00;;;;5074967;28;20222;-78
2023/05/03 05:46:41;;;;;;;6.90;6.20;;;13.80;82.30;14.10;97179.00;;;;5084353;28;20682;-78
2023/05/03 05:49:08;;;;;;;7.17;6.47;;;13.90;82.40;14.20;97183.00;;;;5078920;28;20199;-79
2023/05/03 05:51:36;;;;;;;8.17;6.67;;;13.90;82.50;14.20;97172.00;;;;5071993;28;20283;-78
2023/05/03 05:54:03;;;;;;;6.50;5.93;;;13.90;82.40;14.20;97183.00;;;;5077884;28;20215;-78
2023/05/03 05:56:30;;;;;;;7.37;6.27;;;13.90;82.50;14.20;97182.00;;;;5078614;28;20195;-78
2023/05/03 05:58:59;;;;;;;6.47;5.87;;;14.00;82.60;14.30;97182.00;;;;5071875;28;20279;-78
2023/05/03 06:01:26;;;;;;;6.50;5.90;;;14.00;82.50;14.30;97184.00;;;;5076378;28;20223;-78
2023/05/03 06:03:55;;;;;;;7.40;6.03;;;14.00;82.40;14.30;97186.00;;;;5076966;28;20663;-80
2023/05/03 06:06:22;;;;;;;5.83;5.33;;;14.00;82.40;14.40;97185.00;;;;5083848;28;20215;-80
2023/05/03 06:08:50;;;;;;;6.97;6.37;;;14.10;82.30;14.40;97188.00;;;;5076264;28;20222;-80
2023/05/03 06:11:18;;;;;;;6.57;5.97;;;14.10;82.10;14.40;97195.00;;;;5083699;28;20620;-80
2023/05/03 06:13:46;;;;;;;6.70;6.10;;;14.10;82.00;14.40;97193.00;;;;5072399;28;20250;-80
2023/05/03 06:16:15;;;;;;;6.60;5.83;;;14.10;82.00;14.40;97189.00;;;;5080445;28;20272;-80
2023/05/03 06:18:42;;;;;;;6.37;5.77;;;14.20;81.90;14.50;97192.00;;;;5070848;28;20188;-81
2023/05/03 06:21:10;;;;;;;7.10;6.40;;;14.20;81.80;14.50;97194.00;;;;5080193;28;20212;-80
2023/05/03 06:23:38;;;;;;;6.63;6.03;;;14.20;81.50;14.50;97194.00;;;;5083529;28;20306;-81
2023/05/03 06:26:06;;;;;;;6.83;6.23;;;14.20;81.50;14.50;97192.00;;;;5074200;28;20192;-81
2023/05/03 06:28:34;;;;;;;6.30;5.80;;;14.20;81.50;14.50;97195.00;;;;5079350;28;20199;-81
2023/05/03 06:31:02;;;;;;;7.03;6.40;;;14.30;81.50;14.50;97190.00;;;;5070887;28;20196;-81
2023/05/03 06:33:31;;;;;;;6.43;5.83;;;14.30;81.40;14.50;97196.00;;;;5082832;28;20215;-80
2023/05/03 06:35:58;;;;;;;7.20;6.50;;;14.30;81.40;14.60;97195.00;;;;5080064;28;20716;-81
2023/05/03 06:38:26;;;;;;;7.17;6.47;;;14.30;82.10;14.60;97195.00;;;;5075065;28;20192;-80
2023/05/03 06:40:53;;;;;;;7.57;6.83;;;14.30;81.40;14.60;97195.00;;;;5083098;28;20251;-80
2023/05/03 06:43:21;;;;;;;8.30;6.80;;;14.40;81.30;14.60;97203.00;;;;5080279;28;20655;-80
2023/05/03 06:45:48;;;;;;;6.50;6.00;;;14.40;81.20;14.60;97198.00;;;;5078551;28;20192;-81
2023/05/03 06:48:15;;;;;;;7.10;6.40;;;14.40;81.20;14.70;97196.00;;;;5068396;28;20239;-81
2023/05/03 06:50:44;;;;;;;7.87;6.70;;;14.40;81.30;14.70;97198.00;;;;5075080;28;20214;-80
2023/05/03 06:53:11;;;;;;;7.03;6.33;;;14.50;81.40;14.80;97200.00;;;;5073532;28;20208;-80
2023/05/03 06:55:38;;;;;;;6.83;6.23;;;14.50;81.40;14.80;97204.00;;;;5076097;28;20263;-81
2023/05/03 06:58:08;;;;;;;7.40;6.77;;;14.50;81.40;14.90;97198.00;;;;5081445;28;20776;-80
2023/05/03 07:00:37;;;;;;;7.07;6.47;;;14.60;81.40;14.90;97201.00;;;;5076944;28;20212;-80
2023/05/03 07:03:05;;;;;;;7.10;6.50;;;14.60;81.30;15.00;97211.00;;;;5076538;28;20223;-80
2023/05/03 07:05:32;;;;;;;7.47;6.77;;;14.70;81.50;15.00;97208.00;;;;5071444;28;20244;-81
2023/05/03 07:08:02;;;;;;;7.80;7.00;;;14.70;81.60;15.10;97204.00;;;;5075893;28;20196;-80
2023/05/03 07:10:29;;;;;;;7.40;6.70;;;14.70;81.50;15.10;97198.00;;;;5075160;28;20223;-81
2023/05/03 07:12:57;;;;;;;7.23;6.53;;;14.70;81.50;15.20;97197.00;;;;5074107;28;20212;-81
2023/05/03 07:15:24;;;;;;;7.47;6.77;;;14.80;81.70;15.20;97193.00;;;;5071401;28;20200;-80
2023/05/03 07:17:52;;;;;;;7.57;6.87;;;14.80;81.60;15.30;97190.00;;;;5075037;28;20562;-80
2023/05/03 07:20:19;;;;;;;6.90;6.23;;;14.90;81.70;15.40;97189.00;;;;5072216;28;20307;-78
2023/05/03 07:22:47;;;;;;;7.77;6.63;;;15.00;81.80;15.50;97186.00;;;;5052142;28;20216;-79
2023/05/03 07:25:16;;;;;;;7.00;6.40;;;15.00;81.70;15.50;97185.00;;;;5073503;28;20193;-79
2023/05/03 07:27:44;;;;;;;7.70;6.90;;;15.10;81.80;15.60;97187.00;;;;5084708;28;20571;-79
2023/05/03 07:30:12;;;;;;;7.50;6.80;;;15.10;81.90;15.70;97185.00;;;;5075823;28;20202;-79
2023/05/03 07:32:40;;;;;;;7.73;6.37;;;15.20;81.90;15.80;97184.00;;;;5089146;28;20223;-79
2023/05/03 07:35:08;;;;;;;7.20;6.60;;;15.20;81.70;15.80;97192.00;;;;5083721;28;20200;-81
2023/05/03 07:37:36;;;;;;;8.07;6.27;;;15.30;81.60;15.90;97192.00;;;;5071362;28;20232;-80
2023/05/03 07:40:05;;;;;;;11.27;6.70;;;15.40;82.30;15.90;97194.00;;;;5076368;28;20239;-81
2023/05/03 07:42:34;;;;;;;7.37;6.67;;;15.40;81.50;16.00;97192.00;;;;5059420;28;20223;-80
2023/05/03 07:45:01;;;;;;;7.87;7.17;;;15.50;81.40;16.00;97193.00;;;;5075508;28;20192;-80
2023/05/03 07:47:29;;;;;;;7.00;6.30;;;15.50;81.30;16.10;97195.00;;;;5079152;28;20200;-80
2023/05/03 07:49:56;;;;;;;7.30;6.60;;;15.60;81.30;16.10;97193.00;;;;5081373;28;20199;-80
2023/05/03 07:52:24;;;;;;;7.70;6.87;;;15.60;81.30;16.20;97190.00;;;;5068194;28;20573;-80
2023/05/03 07:54:53;;;;;;;8.73;7.03;;;15.70;81.40;16.20;97191.00;;;;5076038;28;20188;-80
2023/05/03 07:57:22;;;;;;;7.57;6.77;;;15.70;81.40;16.30;97197.00;;;;5077488;28;20210;-80
2023/05/03 07:59:51;;;;;;;7.77;7.07;;;15.80;81.40;16.40;97184.00;;;;5076029;28;20744;-81
2023/05/03 08:02:18;;;;;;;7.80;7.00;;;15.80;81.30;16.40;97180.00;;;;5084688;28;20293;-80
2023/05/03 08:04:45;;;;;;;9.17;7.13;;;15.90;81.40;16.50;97185.00;;;;5076961;28;20202;-80
2023/05/03 08:07:12;;;;;;;8.03;7.23;;;15.90;81.50;16.60;97181.00;;;;5077061;28;20199;-80
2023/05/03 08:09:40;;;;;;;10.20;7.97;;;16.00;81.70;16.70;97181.00;;;;5086007;28;20631;-81
2023/05/03 08:12:07;;;;;;;8.17;7.17;;;16.10;81.80;16.70;97190.00;;;;5079805;28;20255;-81
2023/05/03 08:14:36;;;;;;;8.27;7.57;;;16.10;81.40;16.80;97185.00;;;;5071788;28;20275;-80
2023/05/03 08:17:04;;;;;;;8.47;7.60;;;16.20;80.90;16.90;97185.00;;;;5072770;28;20707;-80
2023/05/03 08:19:32;;;;;;;8.10;7.30;;;16.30;81.20;17.00;97184.00;;;;5075115;28;20243;-80
2023/05/03 08:21:59;;;;;;;8.60;7.73;;;16.30;81.20;17.10;97184.00;;;;5072767;28;20299;-80
2023/05/03 08:24:27;;;;;;;8.63;7.73;;;16.40;81.30;17.10;97182.00;;;;5074185;28;20226;-80
2023/05/03 08:26:55;;;;;;;8.83;7.93;;;16.50;81.00;17.10;97190.00;;;;5071913;28;20192;-80
2023/05/03 08:29:22;;;;;;;9.60;8.50;;;16.50;80.50;17.20;97191.00;;;;5069798;28;20196;-78
2023/05/03 08:31:49;;;;;;;9.70;8.70;;;16.60;81.00;17.20;97192.00;;;;5072063;28;20290;-78
2023/05/03 08:34:18;;;;;;;10.00;8.47;;;16.60;80.30;17.30;97191.00;;;;5073388;28;20590;-80
2023/05/03 08:36:45;;;;;;;8.50;7.57;;;16.60;80.40;17.30;97190.00;;;;5076043;28;20283;-80
2023/05/03 08:39:14;;;;;;;8.93;8.13;;;16.70;80.60;17.40;97195.00;;;;5074338;28;20275;-80
2023/05/03 08:41:43;;;;;;;9.37;8.50;;;16.80;80.40;17.50;97197.00;;;;5074627;28;20331;-80
2023/05/03 08:44:21;;;;;;;9.70;8.70;;;16.80;80.40;17.60;97199.00;;;;5072373;28;20624;-80
2023/05/03 08:46:49;;;;;;;9.10;8.20;;;16.90;80.30;17.60;97201.00;;;;5073246;28;20194;-80
2023/05/03 08:49:20;;;;;;;10.17;9.17;;;17.00;80.10;17.70;97198.00;;;;5074286;28;20217;-80
2023/05/03 08:51:48;;;;;;;11.37;8.70;;;17.00;79.90;17.70;97203.00;;;;5080528;28;20225;-81
2023/05/03 08:54:17;;;;;;;9.03;8.13;;;17.10;79.80;17.70;97207.00;;;;5078103;28;20216;-80
2023/05/03 08:56:46;;;;;;;8.90;8.00;;;17.10;79.30;17.80;97203.00;;;;5073973;28;20203;-80
2023/05/03 08:59:15;;;;;;;8.47;7.70;;;17.10;78.90;17.80;97198.00;;;;5073164;28;20199;-80
2023/05/03 09:01:44;;;;;;;8.67;7.87;;;17.20;78.60;17.80;97204.00;;;;5076503;28;20223;-81
2023/05/03 09:04:12;;;;;;;8.93;8.10;;;17.20;78.30;17.80;97204.00;;;;5082734;28;20291;-80
2023/05/03 09:06:41;;;;;;;8.87;8.00;;;17.20;78.40;17.80;97202.00;;;;5073847;28;20629;-80
2023/05/03 09:09:09;;;;;;;8.90;8.10;;;17.20;78.50;17.80;97207.00;;;;5069333;28;20202;-80
2023/05/03 09:11:39;;;;;;;9.50;8.67;;;17.20;78.50;17.90;97205.00;;;;5068987;28;20676;-80
2023/05/03 09:14:12;;;;;;;8.40;7.67;;;17.30;78.70;17.90;97211.00;;;;5070943;28;20218;-80
2023/05/03 09:16:40;;;;;;;8.80;7.90;;;17.30;78.20;17.90;97209.00;;;;5070789;28;20875;-80
2023/05/03 09:19:10;;;;;;;8.87;8.07;;;17.30;78.30;17.90;97207.00;;;;5070943;28;20200;-80
2023/05/03 09:21:41;;;;;;;8.83;8.03;;;17.30;78.10;17.90;97216.00;;;;5067000;28;20301;-80
2023/05/03 09:24:14;;;;;;;9.70;8.73;;;17.30;78.00;17.90;97211.00;;;;5073534;28;20222;-80
2023/05/03 09:26:42;;;;;;;9.47;8.57;;;17.30;77.30;17.90;97211.00;;;;5071806;28;20589;-80
2023/05/03 09:29:10;;;;;;;9.70;8.70;;;17.30;77.20;17.80;97210.00;;;;5073258;28;20203;-80
2023/05/03 09:31:58;;;;;;;9.77;8.97;;;17.30;76.90;17.80;97212.00;;;;5081151;28;20192;-80
2023/05/03 09:34:25;;;;;;;9.77;8.80;;;17.30;77.00;17.70;97209.00;;;;5077005;28;20223;-80
2023/05/03 09:36:55;;;;;;;9.37;8.53;;;17.30;77.40;17.70;97211.00;;;;5073561;28;20283;-80
2023/05/03 09:39:22;;;;;;;10.83;9.40;;;17.30;77.40;17.70;97217.00;;;;5074834;28;20201;-80
2023/05/03 09:41:50;;;;;;;9.90;8.90;;;17.30;78.30;17.80;97204.00;;;;5074640;28;20216;-80
2023/05/03 09:44:18;;;;;;;9.53;8.73;;;17.30;77.70;17.80;97204.00;;;;5072961;28;20216;-80
2023/05/03 09:47:04;;;;;;;9.40;8.50;;;17.30;77.70;17.90;97202.00;;;;5074287;28;20199;-80
2023/05/03 09:49:32;;;;;;;10.10;9.20;;;17.30;77.60;17.90;97209.00;;;;5092048;28;20242;-80
2023/05/03 09:52:02;;;;;;;9.77;8.87;;;17.30;78.10;18.10;97209.00;;;;5077564;28;20199;-80
2023/05/03 09:54:31;;;;;;;9.63;8.80;;;17.40;78.30;18.20;97212.00;;;;5077000;28;20319;-80
2023/05/03 09:56:59;;;;;;;9.47;8.57;;;17.50;78.30;18.30;97211.00;;;;5077958;28;20196;-81
2023/05/03 09:59:26;;;;;;;9.67;8.77;;;17.60;78.20;18.30;97219.00;;;;5076459;28;20287;-80
2023/05/03 10:02:01;;;;;;;9.57;8.77;;;17.60;77.60;18.40;97207.00;;;;5077823;28;20239;-80
2023/05/03 10:04:39;;;;;;;8.53;7.77;;;17.70;77.00;18.40;97211.00;;;;5085749;28;20219;-80
2023/05/03 10:07:13;;;;;;;8.00;7.30;;;17.70;76.90;18.40;97201.00;;;;5078887;28;20192;-81
2023/05/03 10:09:44;;;;;;;8.40;7.70;;;17.80;76.70;18.50;97200.00;;;;5074614;28;20191;-81
2023/05/03 10:12:15;;;;;;;8.47;7.77;;;17.80;77.00;18.60;97203.00;;;;5073284;28;20572;-81
2023/05/03 10:14:46;;;;;;;8.57;7.83;;;17.90;77.10;18.60;97201.00;;;;5075057;28;20244;-81
2023/05/03 10:17:21;;;;;;;9.80;8.80;;;17.90;77.60;18.60;97197.00;;;;5075272;28;20279;-81
2023/05/03 10:19:54;;;;;;;8.30;7.60;;;18.00;76.30;18.60;97194.00;;;;5073663;28;20199;-80
2023/05/03 10:22:23;;;;;;;8.77;7.97;;;18.00;76.30;18.60;97190.00;;;;5073496;28;20211;-81
2023/05/03 10:25:10;;;;;;;9.40;7.87;;;18.00;76.40;18.60;97191.00;;;;5076806;28;20200;-81
2023/05/03 10:27:53;;;;;;;8.53;7.73;;;18.10;76.20;18.70;97189.00;;;;5074652;28;20253;-81
2023/05/03 10:30:31;;;;;;;8.73;7.87;;;18.20;76.70;18.80;97193.00;;;;5074007;28;20610;-81
2023/05/03 10:32:59;;;;;;;8.80;7.90;;;18.20;75.80;18.80;97182.00;;;;5076194;28;20262;-81
2023/05/03 10:35:29;;;;;;;8.63;7.87;;;18.20;76.50;18.90;97186.00;;;;5078115;28;20728;-81
2023/05/03 10:37:58;;;;;;;8.93;8.13;;;18.30;77.60;19.10;97178.00;;;;5069546;28;20198;-81
2023/05/03 10:40:42;;;;;;;8.43;7.73;;;18.40;77.90;19.20;97185.00;;;;5072922;28;20227;-81
2023/05/03 10:43:44;;;;;;;9.07;8.27;;;18.60;76.90;19.30;97187.00;;;;5076598;28;20227;-79
2023/05/03 10:46:33;;;;;;;8.97;8.17;;;18.70;75.60;19.50;97185.00;;;;5072486;28;20202;-78
2023/05/03 10:49:20;;;;;;;8.27;7.57;;;18.80;75.80;19.60;97189.00;;;;5072456;28;20240;-78
2023/05/03 10:51:47;;;;;;;8.50;7.70;;;18.90;74.80;19.70;97187.00;;;;5073037;28;20199;-78
2023/05/03 10:54:18;;;;;;;8.70;7.93;;;19.00;76.10;19.80;97176.00;;;;5086930;28;20298;-78
2023/05/03 10:56:58;;;;;;;10.33;8.80;;;19.10;75.80;19.90;97180.00;;;;5079964;28;20227;-78
2023/05/03 10:59:26;;;;;;;9.40;8.50;;;19.20;74.70;20.10;97187.00;;;;5079341;28;20257;-79
2023/05/03 11:01:54;;;;;;;9.30;8.40;;;19.40;75.00;20.20;97196.00;;;;5082917;28;20215;-78